sensor_id;sensor_type;location;lat;lon;timestamp;temperature;humidity
35463;DHT22;21578;47.892;9.970;2022-11-15T00:03:22;6.80;96.60
35463;DHT22;21578;47.892;9.970;2022-11-15T00:08:10;6.80;96.60
35463;DHT22;21578;47.892;9.970;2022-11-15T00:12:57;6.70;96.60
35463;DHT22;21578;47.892;9.970;2022-11-15T00:17:48;6.60;96.60
35463;DHT22;21578;47.892;9.970;2022-11-15T00:22:35;6.60;96.60
35463;DHT22;21578;47.892;9.970;2022-11-15T00:27:22;6.60;96.60
35463;DHT22;21578;47.892;9.970;2022-11-15T00:32:09;6.60;96.60
35463;DHT22;21578;47.892;9.970;2022-11-15T00:36:57;6.50;96.60
35463;DHT22;21578;47.892;9.970;2022-11-15T00:41:44;6.50;96.60
35463;DHT22;21578;47.892;9.970;2022-11-15T00:46:31;6.50;96.60
35463;DHT22;21578;47.892;9.970;2022-11-15T00:51:18;6.50;96.60
35463;DHT22;21578;47.892;9.970;2022-11-15T00:56:06;6.40;96.60
35463;DHT22;21578;47.892;9.970;2022-11-15T01:00:53;6.40;96.60
35463;DHT22;21578;47.892;9.970;2022-11-15T01:05:40;6.40;96.60
35463;DHT22;21578;47.892;9.970;2022-11-15T01:10:27;6.40;96.60
35463;DHT22;21578;47.892;9.970;2022-11-15T01:15:16;6.40;96.60
35463;DHT22;21578;47.892;9.970;2022-11-15T01:20:03;6.40;96.60
35463;DHT22;21578;47.892;9.970;2022-11-15T01:24:50;6.40;96.60
35463;DHT22;21578;47.892;9.970;2022-11-15T01:29:37;6.40;96.60
35463;DHT22;21578;47.892;9.970;2022-11-15T01:34:25;6.30;96.60
35463;DHT22;21578;47.892;9.970;2022-11-15T01:39:12;6.30;96.60
35463;DHT22;21578;47.892;9.970;2022-11-15T01:49:22;6.20;96.60
35463;DHT22;21578;47.892;9.970;2022-11-15T01:54:17;6.20;96.60
35463;DHT22;21578;47.892;9.970;2022-11-15T01:59:06;6.10;96.60
35463;DHT22;21578;47.892;9.970;2022-11-15T02:03:57;6.10;96.60
35463;DHT22;21578;47.892;9.970;2022-11-15T02:08:45;6.10;96.60
35463;DHT22;21578;47.892;9.970;2022-11-15T02:13:34;6.00;96.60
35463;DHT22;21578;47.892;9.970;2022-11-15T02:18:26;6.00;96.60
35463;DHT22;21578;47.892;9.970;2022-11-15T02:23:42;5.90;96.60
35463;DHT22;21578;47.892;9.970;2022-11-15T02:28:48;5.90;96.60
35463;DHT22;21578;47.892;9.970;2022-11-15T02:33:50;5.90;96.60
35463;DHT22;21578;47.892;9.970;2022-11-15T02:38:43;5.90;96.60
35463;DHT22;21578;47.892;9.970;2022-11-15T02:43:37;5.90;96.60
35463;DHT22;21578;47.892;9.970;2022-11-15T02:48:45;6.00;96.60
35463;DHT22;21578;47.892;9.970;2022-11-15T02:53:33;6.00;96.60
35463;DHT22;21578;47.892;9.970;2022-11-15T02:58:35;5.90;96.60
35463;DHT22;21578;47.892;9.970;2022-11-15T03:03:42;5.70;96.60
35463;DHT22;21578;47.892;9.970;2022-11-15T03:08:39;5.70;96.60
35463;DHT22;21578;47.892;9.970;2022-11-15T03:13:35;5.60;96.60
35463;DHT22;21578;47.892;9.970;2022-11-15T03:18:29;5.60;96.60
35463;DHT22;21578;47.892;9.970;2022-11-15T03:23:16;5.60;96.60
35463;DHT22;21578;47.892;9.970;2022-11-15T03:28:07;5.50;96.60
35463;DHT22;21578;47.892;9.970;2022-11-15T03:32:56;5.40;96.60
35463;DHT22;21578;47.892;9.970;2022-11-15T03:37:48;5.40;96.60
35463;DHT22;21578;47.892;9.970;2022-11-15T03:42:39;5.40;96.60
35463;DHT22;21578;47.892;9.970;2022-11-15T03:47:34;5.40;96.60
35463;DHT22;21578;47.892;9.970;2022-11-15T03:52:22;5.50;96.60
35463;DHT22;21578;47.892;9.970;2022-11-15T03:57:09;5.50;96.60
35463;DHT22;21578;47.892;9.970;2022-11-15T04:01:56;5.50;96.60
35463;DHT22;21578;47.892;9.970;2022-11-15T04:06:44;5.50;96.60
35463;DHT22;21578;47.892;9.970;2022-11-15T04:11:31;5.50;96.60
35463;DHT22;21578;47.892;9.970;2022-11-15T04:16:18;5.40;96.60
35463;DHT22;21578;47.892;9.970;2022-11-15T04:21:05;5.40;96.60
35463;DHT22;21578;47.892;9.970;2022-11-15T04:26:12;5.30;96.60
35463;DHT22;21578;47.892;9.970;2022-11-15T04:31:01;5.40;96.60
35463;DHT22;21578;47.892;9.970;2022-11-15T04:35:48;5.30;96.60
35463;DHT22;21578;47.892;9.970;2022-11-15T04:40:48;5.30;96.60
35463;DHT22;21578;47.892;9.970;2022-11-15T04:45:37;5.30;96.60
35463;DHT22;21578;47.892;9.970;2022-11-15T04:50:24;5.30;96.60
35463;DHT22;21578;47.892;9.970;2022-11-15T04:55:10;5.30;96.60
35463;DHT22;21578;47.892;9.970;2022-11-15T04:59:57;5.30;96.60
35463;DHT22;21578;47.892;9.970;2022-11-15T05:04:46;5.30;96.60
35463;DHT22;21578;47.892;9.970;2022-11-15T05:09:33;5.30;96.60
35463;DHT22;21578;47.892;9.970;2022-11-15T05:14:20;5.30;96.60
35463;DHT22;21578;47.892;9.970;2022-11-15T05:19:06;5.40;96.60
35463;DHT22;21578;47.892;9.970;2022-11-15T05:23:55;5.40;96.60
35463;DHT22;21578;47.892;9.970;2022-11-15T05:28:42;5.40;96.60
35463;DHT22;21578;47.892;9.970;2022-11-15T05:33:29;5.40;96.60
35463;DHT22;21578;47.892;9.970;2022-11-15T05:38:16;5.40;96.60
35463;DHT22;21578;47.892;9.970;2022-11-15T05:43:05;5.40;96.60
35463;DHT22;21578;47.892;9.970;2022-11-15T05:47:53;5.40;96.60
35463;DHT22;21578;47.892;9.970;2022-11-15T06:07:59;5.40;96.60
35463;DHT22;21578;47.892;9.970;2022-11-15T06:12:46;5.40;96.60
35463;DHT22;21578;47.892;9.970;2022-11-15T06:17:32;5.30;96.60
35463;DHT22;21578;47.892;9.970;2022-11-15T06:22:19;5.30;96.60
35463;DHT22;21578;47.892;9.970;2022-11-15T06:27:08;5.30;96.60
35463;DHT22;21578;47.892;9.970;2022-11-15T06:31:55;5.30;96.60
35463;DHT22;21578;47.892;9.970;2022-11-15T06:36:41;5.30;96.60
35463;DHT22;21578;47.892;9.970;2022-11-15T06:41:28;5.30;96.60
35463;DHT22;21578;47.892;9.970;2022-11-15T06:46:17;5.30;96.60
35463;DHT22;21578;47.892;9.970;2022-11-15T06:51:04;5.30;96.60
35463;DHT22;21578;47.892;9.970;2022-11-15T06:55:51;5.30;96.60
35463;DHT22;21578;47.892;9.970;2022-11-15T07:00:38;5.30;96.60
35463;DHT22;21578;47.892;9.970;2022-11-15T07:05:27;5.40;96.60
35463;DHT22;21578;47.892;9.970;2022-11-15T07:10:14;5.40;96.60
35463;DHT22;21578;47.892;9.970;2022-11-15T07:15:02;5.50;96.60
35463;DHT22;21578;47.892;9.970;2022-11-15T07:19:49;5.60;96.60
35463;DHT22;21578;47.892;9.970;2022-11-15T07:24:37;5.70;96.60
35463;DHT22;21578;47.892;9.970;2022-11-15T07:29:24;5.70;96.60
35463;DHT22;21578;47.892;9.970;2022-11-15T07:34:11;5.80;96.60
35463;DHT22;21578;47.892;9.970;2022-11-15T07:38:58;5.80;96.60
35463;DHT22;21578;47.892;9.970;2022-11-15T07:43:46;5.70;96.60
35463;DHT22;21578;47.892;9.970;2022-11-15T07:48:33;5.70;96.60
35463;DHT22;21578;47.892;9.970;2022-11-15T07:53:20;5.70;96.60
35463;DHT22;21578;47.892;9.970;2022-11-15T07:58:08;5.70;96.60
35463;DHT22;21578;47.892;9.970;2022-11-15T08:03:03;5.90;96.60
35463;DHT22;21578;47.892;9.970;2022-11-15T08:07:50;6.00;96.60
35463;DHT22;21578;47.892;9.970;2022-11-15T08:12:37;6.10;96.60
35463;DHT22;21578;47.892;9.970;2022-11-15T08:17:24;6.30;96.60
35463;DHT22;21578;47.892;9.970;2022-11-15T08:22:13;6.50;96.60
35463;DHT22;21578;47.892;9.970;2022-11-15T08:27:00;6.50;96.60
35463;DHT22;21578;47.892;9.970;2022-11-15T08:31:47;6.70;96.60
35463;DHT22;21578;47.892;9.970;2022-11-15T08:36:34;6.80;96.60
35463;DHT22;21578;47.892;9.970;2022-11-15T08:41:25;7.00;96.60
35463;DHT22;21578;47.892;9.970;2022-11-15T08:46:13;7.20;96.60
35463;DHT22;21578;47.892;9.970;2022-11-15T08:51:00;7.40;95.80
35463;DHT22;21578;47.892;9.970;2022-11-15T08:55:47;7.60;95.70
35463;DHT22;21578;47.892;9.970;2022-11-15T09:00:35;7.80;96.30
35463;DHT22;21578;47.892;9.970;2022-11-15T09:05:22;7.90;95.70
35463;DHT22;21578;47.892;9.970;2022-11-15T09:10:09;8.00;94.50
35463;DHT22;21578;47.892;9.970;2022-11-15T09:14:56;8.20;94.70
35463;DHT22;21578;47.892;9.970;2022-11-15T09:19:44;8.20;94.60
35463;DHT22;21578;47.892;9.970;2022-11-15T09:24:31;8.30;93.90
35463;DHT22;21578;47.892;9.970;2022-11-15T09:29:18;8.50;94.30
35463;DHT22;21578;47.892;9.970;2022-11-15T09:34:05;8.70;94.80
35463;DHT22;21578;47.892;9.970;2022-11-15T09:38:53;8.90;95.50
35463;DHT22;21578;47.892;9.970;2022-11-15T09:43:44;8.90;95.30
35463;DHT22;21578;47.892;9.970;2022-11-15T09:48:53;8.80;92.30
35463;DHT22;21578;47.892;9.970;2022-11-15T09:53:47;8.80;92.00
35463;DHT22;21578;47.892;9.970;2022-11-15T09:58:45;9.00;91.20
35463;DHT22;21578;47.892;9.970;2022-11-15T10:03:37;9.10;91.90
35463;DHT22;21578;47.892;9.970;2022-11-15T10:08:45;9.10;92.20
35463;DHT22;21578;47.892;9.970;2022-11-15T10:13:37;9.10;93.20
35463;DHT22;21578;47.892;9.970;2022-11-15T10:18:33;9.10;92.90
35463;DHT22;21578;47.892;9.970;2022-11-15T10:23:22;9.20;92.50
35463;DHT22;21578;47.892;9.970;2022-11-15T10:28:13;9.30;92.40
35463;DHT22;21578;47.892;9.970;2022-11-15T10:33:22;9.50;91.70
35463;DHT22;21578;47.892;9.970;2022-11-15T10:38:11;9.60;91.80
35463;DHT22;21578;47.892;9.970;2022-11-15T10:43:05;9.80;91.60
35463;DHT22;21578;47.892;9.970;2022-11-15T10:47:52;10.00;91.80
35463;DHT22;21578;47.892;9.970;2022-11-15T10:52:45;10.20;91.60
35463;DHT22;21578;47.892;9.970;2022-11-15T10:57:37;10.20;91.90
35463;DHT22;21578;47.892;9.970;2022-11-15T11:02:31;10.20;92.10
35463;DHT22;21578;47.892;9.970;2022-11-15T11:07:21;10.20;92.50
35463;DHT22;21578;47.892;9.970;2022-11-15T11:12:11;10.20;93.30
35463;DHT22;21578;47.892;9.970;2022-11-15T11:17:05;10.30;93.80
35463;DHT22;21578;47.892;9.970;2022-11-15T11:21:57;10.30;94.30
35463;DHT22;21578;47.892;9.970;2022-11-15T11:26:57;10.40;94.40
35463;DHT22;21578;47.892;9.970;2022-11-15T11:31:57;10.70;93.90
35463;DHT22;21578;47.892;9.970;2022-11-15T11:36:50;10.90;93.90
35463;DHT22;21578;47.892;9.970;2022-11-15T11:41:53;10.90;93.30
35463;DHT22;21578;47.892;9.970;2022-11-15T11:46:51;11.00;93.20
35463;DHT22;21578;47.892;9.970;2022-11-15T11:51:43;11.10;92.10
35463;DHT22;21578;47.892;9.970;2022-11-15T11:56:34;11.10;92.10
35463;DHT22;21578;47.892;9.970;2022-11-15T16:54:04;9.30;96.60
35463;DHT22;21578;47.892;9.970;2022-11-15T16:58:51;9.30;96.60
35463;DHT22;21578;47.892;9.970;2022-11-15T17:03:45;9.20;96.60
35463;DHT22;21578;47.892;9.970;2022-11-15T17:20:19;9.30;96.60
35463;DHT22;21578;47.892;9.970;2022-11-15T17:25:07;9.30;96.60
35463;DHT22;21578;47.892;9.970;2022-11-15T17:29:54;9.30;96.60
35463;DHT22;21578;47.892;9.970;2022-11-15T17:34:41;9.30;96.60
35463;DHT22;21578;47.892;9.970;2022-11-15T17:39:29;9.20;96.60
35463;DHT22;21578;47.892;9.970;2022-11-15T17:44:38;9.10;96.60
35463;DHT22;21578;47.892;9.970;2022-11-15T17:49:32;9.00;96.60
35463;DHT22;21578;47.892;9.970;2022-11-15T17:54:23;9.00;96.60
35463;DHT22;21578;47.892;9.970;2022-11-15T17:59:12;8.90;96.60
35463;DHT22;21578;47.892;9.970;2022-11-15T18:04:00;8.90;96.60
35463;DHT22;21578;47.892;9.970;2022-11-15T18:08:49;9.00;96.60
35463;DHT22;21578;47.892;9.970;2022-11-15T18:13:38;9.10;96.60
35463;DHT22;21578;47.892;9.970;2022-11-15T18:18:26;9.20;96.60
35463;DHT22;21578;47.892;9.970;2022-11-15T18:23:15;9.10;96.60
35463;DHT22;21578;47.892;9.970;2022-11-15T18:28:03;9.20;96.60
35463;DHT22;21578;47.892;9.970;2022-11-15T18:32:51;9.20;96.60
35463;DHT22;21578;47.892;9.970;2022-11-15T18:37:40;9.30;96.60
35463;DHT22;21578;47.892;9.970;2022-11-15T18:42:27;9.20;96.60
35463;DHT22;21578;47.892;9.970;2022-11-15T18:47:17;9.20;96.60
35463;DHT22;21578;47.892;9.970;2022-11-15T18:52:04;9.20;96.60
35463;DHT22;21578;47.892;9.970;2022-11-15T18:56:55;9.10;96.60
35463;DHT22;21578;47.892;9.970;2022-11-15T19:01:44;9.10;96.60
35463;DHT22;21578;47.892;9.970;2022-11-15T19:06:36;9.10;96.60
35463;DHT22;21578;47.892;9.970;2022-11-15T19:11:25;9.00;96.60
35463;DHT22;21578;47.892;9.970;2022-11-15T19:16:15;9.00;96.60
35463;DHT22;21578;47.892;9.970;2022-11-15T19:21:03;8.90;96.60
35463;DHT22;21578;47.892;9.970;2022-11-15T19:25:54;8.90;96.60
35463;DHT22;21578;47.892;9.970;2022-11-15T19:30:41;8.90;96.60
35463;DHT22;21578;47.892;9.970;2022-11-15T19:35:29;8.90;96.60
35463;DHT22;21578;47.892;9.970;2022-11-15T19:40:18;8.90;96.60
35463;DHT22;21578;47.892;9.970;2022-11-15T19:45:05;9.20;96.60
35463;DHT22;21578;47.892;9.970;2022-11-15T19:49:52;9.20;96.60
35463;DHT22;21578;47.892;9.970;2022-11-15T19:54:40;9.20;96.60
35463;DHT22;21578;47.892;9.970;2022-11-15T19:59:27;9.20;96.60
35463;DHT22;21578;47.892;9.970;2022-11-15T20:04:14;9.40;96.10
35463;DHT22;21578;47.892;9.970;2022-11-15T20:09:02;9.40;96.20
35463;DHT22;21578;47.892;9.970;2022-11-15T20:13:50;9.50;95.80
35463;DHT22;21578;47.892;9.970;2022-11-15T20:18:41;9.40;96.50
35463;DHT22;21578;47.892;9.970;2022-11-15T20:23:28;9.30;96.60
35463;DHT22;21578;47.892;9.970;2022-11-15T20:28:17;9.30;96.60
35463;DHT22;21578;47.892;9.970;2022-11-15T20:33:06;9.30;96.60
35463;DHT22;21578;47.892;9.970;2022-11-15T20:37:53;9.20;96.60
35463;DHT22;21578;47.892;9.970;2022-11-15T20:42:40;9.10;96.60
35463;DHT22;21578;47.892;9.970;2022-11-15T20:47:29;9.10;96.60
35463;DHT22;21578;47.892;9.970;2022-11-15T20:52:17;9.10;96.60
35463;DHT22;21578;47.892;9.970;2022-11-15T20:57:05;9.10;96.60
35463;DHT22;21578;47.892;9.970;2022-11-15T21:01:52;9.10;96.60
35463;DHT22;21578;47.892;9.970;2022-11-15T21:06:42;9.10;96.60
35463;DHT22;21578;47.892;9.970;2022-11-15T21:11:31;9.20;96.60
35463;DHT22;21578;47.892;9.970;2022-11-15T21:16:36;9.30;96.60
35463;DHT22;21578;47.892;9.970;2022-11-15T21:21:23;9.30;96.60
35463;DHT22;21578;47.892;9.970;2022-11-15T21:26:10;9.40;96.20
35463;DHT22;21578;47.892;9.970;2022-11-15T21:30:59;9.50;95.70
35463;DHT22;21578;47.892;9.970;2022-11-15T21:35:46;9.50;95.40
35463;DHT22;21578;47.892;9.970;2022-11-15T21:40:34;9.50;95.10
35463;DHT22;21578;47.892;9.970;2022-11-15T21:45:21;9.60;94.50
35463;DHT22;21578;47.892;9.970;2022-11-15T21:50:09;9.60;94.90
35463;DHT22;21578;47.892;9.970;2022-11-15T21:54:56;9.60;95.00
35463;DHT22;21578;47.892;9.970;2022-11-15T21:59:43;9.70;95.10
35463;DHT22;21578;47.892;9.970;2022-11-15T22:04:44;9.60;95.10
35463;DHT22;21578;47.892;9.970;2022-11-15T22:09:32;9.60;95.10
35463;DHT22;21578;47.892;9.970;2022-11-15T22:14:19;9.60;95.20
35463;DHT22;21578;47.892;9.970;2022-11-15T22:19:06;9.60;95.30
35463;DHT22;21578;47.892;9.970;2022-11-15T22:23:53;9.60;95.00
35463;DHT22;21578;47.892;9.970;2022-11-15T22:28:42;9.60;94.80
35463;DHT22;21578;47.892;9.970;2022-11-15T22:33:30;9.60;94.50
35463;DHT22;21578;47.892;9.970;2022-11-15T22:38:18;9.60;93.80
35463;DHT22;21578;47.892;9.970;2022-11-15T22:43:05;9.70;93.00
35463;DHT22;21578;47.892;9.970;2022-11-15T22:47:54;9.80;92.60
35463;DHT22;21578;47.892;9.970;2022-11-15T22:52:41;9.80;92.20
35463;DHT22;21578;47.892;9.970;2022-11-15T22:57:28;9.90;92.30
35463;DHT22;21578;47.892;9.970;2022-11-15T23:02:15;9.80;92.30
35463;DHT22;21578;47.892;9.970;2022-11-15T23:07:03;9.80;92.40
